sensor_id;sensor_type;location;lat;lon;timestamp;P1;durP1;ratioP1;P2;durP2;ratioP2
68987;SDS011;56038;46.080;11.116;2022-11-21T00:04:17;10.77;;;7.90;;
68987;SDS011;56038;46.080;11.116;2022-11-21T00:09:19;10.90;;;8.07;;
68987;SDS011;56038;46.080;11.116;2022-11-21T00:14:21;9.27;;;7.63;;
68987;SDS011;56038;46.080;11.116;2022-11-21T00:19:24;9.73;;;7.15;;
68987;SDS011;56038;46.080;11.116;2022-11-21T00:24:25;11.68;;;7.72;;
68987;SDS011;56038;46.080;11.116;2022-11-21T00:29:27;9.75;;;7.85;;
68987;SDS011;56038;46.080;11.116;2022-11-21T00:34:30;10.38;;;7.03;;
68987;SDS011;56038;46.080;11.116;2022-11-21T00:39:32;10.25;;;7.45;;
68987;SDS011;56038;46.080;11.116;2022-11-21T00:44:34;12.90;;;8.27;;
68987;SDS011;56038;46.080;11.116;2022-11-21T00:49:37;10.02;;;7.63;;
68987;SDS011;56038;46.080;11.116;2022-11-21T00:54:39;12.15;;;8.40;;
68987;SDS011;56038;46.080;11.116;2022-11-21T00:59:41;10.88;;;7.97;;
68987;SDS011;56038;46.080;11.116;2022-11-21T01:04:44;14.80;;;8.40;;
68987;SDS011;56038;46.080;11.116;2022-11-21T01:09:45;10.23;;;8.50;;
68987;SDS011;56038;46.080;11.116;2022-11-21T01:14:47;10.05;;;7.57;;
68987;SDS011;56038;46.080;11.116;2022-11-21T01:19:51;9.35;;;7.30;;
68987;SDS011;56038;46.080;11.116;2022-11-21T01:24:52;12.88;;;7.30;;
68987;SDS011;56038;46.080;11.116;2022-11-21T01:29:54;9.98;;;7.35;;
68987;SDS011;56038;46.080;11.116;2022-11-21T01:34:57;13.23;;;7.57;;
68987;SDS011;56038;46.080;11.116;2022-11-21T01:39:59;10.80;;;8.32;;
68987;SDS011;56038;46.080;11.116;2022-11-21T01:45:01;10.68;;;8.63;;
68987;SDS011;56038;46.080;11.116;2022-11-21T01:50:06;12.65;;;7.30;;
68987;SDS011;56038;46.080;11.116;2022-11-21T01:55:08;10.70;;;7.05;;
68987;SDS011;56038;46.080;11.116;2022-11-21T02:00:12;7.97;;;7.03;;
68987;SDS011;56038;46.080;11.116;2022-11-21T02:05:24;10.13;;;7.25;;
68987;SDS011;56038;46.080;11.116;2022-11-21T02:10:29;9.48;;;6.80;;
68987;SDS011;56038;46.080;11.116;2022-11-21T02:15:31;10.05;;;6.78;;
68987;SDS011;56038;46.080;11.116;2022-11-21T02:20:34;10.68;;;6.72;;
68987;SDS011;56038;46.080;11.116;2022-11-21T02:25:39;10.45;;;7.13;;
68987;SDS011;56038;46.080;11.116;2022-11-21T02:30:42;7.93;;;6.95;;
68987;SDS011;56038;46.080;11.116;2022-11-21T02:35:53;10.10;;;7.07;;
68987;SDS011;56038;46.080;11.116;2022-11-21T02:40:59;11.57;;;7.13;;
68987;SDS011;56038;46.080;11.116;2022-11-21T02:46:05;9.82;;;6.90;;
68987;SDS011;56038;46.080;11.116;2022-11-21T02:51:07;10.60;;;7.00;;
68987;SDS011;56038;46.080;11.116;2022-11-21T02:56:10;8.85;;;6.78;;
68987;SDS011;56038;46.080;11.116;2022-11-21T03:01:12;7.80;;;6.07;;
68987;SDS011;56038;46.080;11.116;2022-11-21T03:06:14;8.65;;;6.32;;
68987;SDS011;56038;46.080;11.116;2022-11-21T03:11:17;9.65;;;7.03;;
68987;SDS011;56038;46.080;11.116;2022-11-21T03:16:19;8.95;;;6.78;;
68987;SDS011;56038;46.080;11.116;2022-11-21T03:21:20;11.15;;;5.80;;
68987;SDS011;56038;46.080;11.116;2022-11-21T03:26:23;6.80;;;5.68;;
68987;SDS011;56038;46.080;11.116;2022-11-21T03:31:25;7.97;;;6.20;;
68987;SDS011;56038;46.080;11.116;2022-11-21T03:36:27;8.70;;;6.28;;
68987;SDS011;56038;46.080;11.116;2022-11-21T03:41:30;7.38;;;6.38;;
68987;SDS011;56038;46.080;11.116;2022-11-21T03:46:33;10.05;;;6.95;;
68987;SDS011;56038;46.080;11.116;2022-11-21T03:51:36;8.98;;;7.53;;
68987;SDS011;56038;46.080;11.116;2022-11-21T03:56:39;9.38;;;6.80;;
68987;SDS011;56038;46.080;11.116;2022-11-21T04:01:41;10.43;;;6.82;;
68987;SDS011;56038;46.080;11.116;2022-11-21T04:06:43;9.93;;;6.45;;
68987;SDS011;56038;46.080;11.116;2022-11-21T04:11:46;8.98;;;6.57;;
68987;SDS011;56038;46.080;11.116;2022-11-21T04:16:47;9.13;;;6.78;;
68987;SDS011;56038;46.080;11.116;2022-11-21T04:21:49;8.90;;;6.20;;
68987;SDS011;56038;46.080;11.116;2022-11-21T04:26:53;7.32;;;5.80;;
68987;SDS011;56038;46.080;11.116;2022-11-21T04:31:55;9.80;;;6.03;;
68987;SDS011;56038;46.080;11.116;2022-11-21T04:36:57;8.23;;;5.90;;
68987;SDS011;56038;46.080;11.116;2022-11-21T04:42:00;8.50;;;5.68;;
68987;SDS011;56038;46.080;11.116;2022-11-21T04:47:02;10.27;;;6.13;;
68987;SDS011;56038;46.080;11.116;2022-11-21T04:52:04;8.95;;;5.80;;
68987;SDS011;56038;46.080;11.116;2022-11-21T04:57:07;8.65;;;6.07;;
68987;SDS011;56038;46.080;11.116;2022-11-21T05:02:09;7.65;;;5.18;;
68987;SDS011;56038;46.080;11.116;2022-11-21T05:07:12;8.00;;;6.03;;
68987;SDS011;56038;46.080;11.116;2022-11-21T05:12:16;7.47;;;5.93;;
68987;SDS011;56038;46.080;11.116;2022-11-21T05:17:35;6.93;;;5.57;;
68987;SDS011;56038;46.080;11.116;2022-11-21T05:22:37;10.38;;;4.78;;
68987;SDS011;56038;46.080;11.116;2022-11-21T05:27:40;8.10;;;5.35;;
68987;SDS011;56038;46.080;11.116;2022-11-21T05:32:42;8.10;;;5.85;;
68987;SDS011;56038;46.080;11.116;2022-11-21T05:37:44;8.70;;;6.53;;
68987;SDS011;56038;46.080;11.116;2022-11-21T05:42:47;9.73;;;6.60;;
68987;SDS011;56038;46.080;11.116;2022-11-21T05:48:06;12.25;;;7.63;;
68987;SDS011;56038;46.080;11.116;2022-11-21T05:53:08;15.40;;;9.88;;
68987;SDS011;56038;46.080;11.116;2022-11-21T05:58:11;11.20;;;7.60;;
68987;SDS011;56038;46.080;11.116;2022-11-21T06:03:13;7.38;;;6.38;;
68987;SDS011;56038;46.080;11.116;2022-11-21T06:08:32;10.82;;;7.07;;
68987;SDS011;56038;46.080;11.116;2022-11-21T06:13:36;12.65;;;7.20;;
68987;SDS011;56038;46.080;11.116;2022-11-21T06:18:38;10.90;;;7.53;;
68987;SDS011;56038;46.080;11.116;2022-11-21T06:23:41;12.93;;;7.68;;
68987;SDS011;56038;46.080;11.116;2022-11-21T06:28:44;11.07;;;7.50;;
68987;SDS011;56038;46.080;11.116;2022-11-21T06:33:50;11.70;;;7.10;;
68987;SDS011;56038;46.080;11.116;2022-11-21T06:38:53;9.07;;;6.55;;
68987;SDS011;56038;46.080;11.116;2022-11-21T06:43:58;15.57;;;9.55;;
68987;SDS011;56038;46.080;11.116;2022-11-21T06:49:01;14.35;;;7.95;;
68987;SDS011;56038;46.080;11.116;2022-11-21T06:54:03;10.85;;;7.90;;
68987;SDS011;56038;46.080;11.116;2022-11-21T06:59:06;16.98;;;10.10;;
68987;SDS011;56038;46.080;11.116;2022-11-21T07:04:08;10.35;;;6.80;;
68987;SDS011;56038;46.080;11.116;2022-11-21T07:09:09;14.13;;;8.07;;
68987;SDS011;56038;46.080;11.116;2022-11-21T07:14:13;8.98;;;7.72;;
68987;SDS011;56038;46.080;11.116;2022-11-21T07:19:14;12.60;;;7.43;;
68987;SDS011;56038;46.080;11.116;2022-11-21T07:24:16;9.82;;;6.70;;
68987;SDS011;56038;46.080;11.116;2022-11-21T07:29:19;35.92;;;16.65;;
68987;SDS011;56038;46.080;11.116;2022-11-21T07:34:21;14.18;;;8.35;;
68987;SDS011;56038;46.080;11.116;2022-11-21T07:39:23;11.25;;;7.38;;
68987;SDS011;56038;46.080;11.116;2022-11-21T07:44:26;11.98;;;7.80;;
68987;SDS011;56038;46.080;11.116;2022-11-21T07:49:28;7.85;;;6.85;;
68987;SDS011;56038;46.080;11.116;2022-11-21T07:54:29;12.70;;;6.72;;
68987;SDS011;56038;46.080;11.116;2022-11-21T07:59:33;8.52;;;6.22;;
68987;SDS011;56038;46.080;11.116;2022-11-21T08:04:34;9.38;;;5.82;;
68987;SDS011;56038;46.080;11.116;2022-11-21T08:09:36;9.43;;;6.90;;
68987;SDS011;56038;46.080;11.116;2022-11-21T08:14:39;8.63;;;6.57;;
68987;SDS011;56038;46.080;11.116;2022-11-21T08:19:41;8.98;;;7.18;;
68987;SDS011;56038;46.080;11.116;2022-11-21T08:24:43;8.85;;;6.50;;
68987;SDS011;56038;46.080;11.116;2022-11-21T08:29:46;7.97;;;5.65;;
68987;SDS011;56038;46.080;11.116;2022-11-21T08:34:48;6.75;;;5.43;;
68987;SDS011;56038;46.080;11.116;2022-11-21T08:39:50;7.80;;;5.65;;
68987;SDS011;56038;46.080;11.116;2022-11-21T08:44:53;9.77;;;6.75;;
68987;SDS011;56038;46.080;11.116;2022-11-21T08:49:55;14.95;;;9.32;;
68987;SDS011;56038;46.080;11.116;2022-11-21T08:54:57;9.45;;;6.47;;
68987;SDS011;56038;46.080;11.116;2022-11-21T09:00:00;8.45;;;5.47;;
68987;SDS011;56038;46.080;11.116;2022-11-21T09:05:02;7.03;;;4.95;;
68987;SDS011;56038;46.080;11.116;2022-11-21T09:10:04;6.65;;;5.13;;
68987;SDS011;56038;46.080;11.116;2022-11-21T09:15:09;6.35;;;5.10;;
68987;SDS011;56038;46.080;11.116;2022-11-21T09:20:29;7.90;;;4.47;;
68987;SDS011;56038;46.080;11.116;2022-11-21T09:25:31;5.40;;;4.45;;
68987;SDS011;56038;46.080;11.116;2022-11-21T09:30:35;12.02;;;5.28;;
68987;SDS011;56038;46.080;11.116;2022-11-21T09:35:37;18.65;;;5.18;;
68987;SDS011;56038;46.080;11.116;2022-11-21T09:40:41;5.97;;;4.05;;
68987;SDS011;56038;46.080;11.116;2022-11-21T09:45:48;4.93;;;3.70;;
68987;SDS011;56038;46.080;11.116;2022-11-21T09:50:52;4.03;;;3.40;;
68987;SDS011;56038;46.080;11.116;2022-11-21T09:55:58;4.70;;;3.55;;
68987;SDS011;56038;46.080;11.116;2022-11-21T10:01:04;4.72;;;3.17;;
68987;SDS011;56038;46.080;11.116;2022-11-21T10:06:10;4.20;;;3.00;;
68987;SDS011;56038;46.080;11.116;2022-11-21T10:11:20;8.68;;;3.60;;
68987;SDS011;56038;46.080;11.116;2022-11-21T10:16:32;7.28;;;3.08;;
68987;SDS011;56038;46.080;11.116;2022-11-21T10:21:51;3.60;;;2.85;;
68987;SDS011;56038;46.080;11.116;2022-11-21T10:27:10;5.75;;;2.45;;
68987;SDS011;56038;46.080;11.116;2022-11-21T10:32:19;2.75;;;2.55;;
68987;SDS011;56038;46.080;11.116;2022-11-21T10:37:34;3.35;;;2.65;;
68987;SDS011;56038;46.080;11.116;2022-11-21T10:42:39;5.70;;;2.78;;
68987;SDS011;56038;46.080;11.116;2022-11-21T10:47:50;5.35;;;3.10;;
68987;SDS011;56038;46.080;11.116;2022-11-21T10:52:55;3.60;;;2.88;;
68987;SDS011;56038;46.080;11.116;2022-11-21T10:58:32;2.58;;;2.38;;
68987;SDS011;56038;46.080;11.116;2022-11-21T11:03:38;3.03;;;2.20;;
68987;SDS011;56038;46.080;11.116;2022-11-21T11:08:48;2.80;;;2.33;;
68987;SDS011;56038;46.080;11.116;2022-11-21T11:13:54;2.65;;;2.45;;
68987;SDS011;56038;46.080;11.116;2022-11-21T11:19:00;2.67;;;2.40;;
68987;SDS011;56038;46.080;11.116;2022-11-21T11:24:19;4.13;;;2.97;;
68987;SDS011;56038;46.080;11.116;2022-11-21T11:29:24;3.70;;;3.00;;
68987;SDS011;56038;46.080;11.116;2022-11-21T11:34:35;3.47;;;2.80;;
68987;SDS011;56038;46.080;11.116;2022-11-21T11:39:40;3.90;;;3.50;;
68987;SDS011;56038;46.080;11.116;2022-11-21T11:44:57;3.72;;;3.17;;
68987;SDS011;56038;46.080;11.116;2022-11-21T11:50:35;3.55;;;3.20;;
68987;SDS011;56038;46.080;11.116;2022-11-21T11:55:41;4.07;;;3.10;;
68987;SDS011;56038;46.080;11.116;2022-11-21T12:00:46;4.20;;;3.35;;
68987;SDS011;56038;46.080;11.116;2022-11-21T12:05:53;5.22;;;3.25;;
68987;SDS011;56038;46.080;11.116;2022-11-21T12:11:04;4.15;;;3.50;;
68987;SDS011;56038;46.080;11.116;2022-11-21T12:16:31;5.65;;;3.78;;
68987;SDS011;56038;46.080;11.116;2022-11-21T12:21:38;5.80;;;3.08;;
68987;SDS011;56038;46.080;11.116;2022-11-21T12:26:44;4.70;;;3.70;;
68987;SDS011;56038;46.080;11.116;2022-11-21T12:31:57;6.07;;;4.00;;
68987;SDS011;56038;46.080;11.116;2022-11-21T12:37:12;6.07;;;3.93;;
68987;SDS011;56038;46.080;11.116;2022-11-21T12:42:33;5.38;;;4.00;;
68987;SDS011;56038;46.080;11.116;2022-11-21T12:47:54;5.68;;;3.70;;
68987;SDS011;56038;46.080;11.116;2022-11-21T12:53:35;7.70;;;3.60;;
68987;SDS011;56038;46.080;11.116;2022-11-21T12:59:00;6.18;;;2.90;;
68987;SDS011;56038;46.080;11.116;2022-11-21T13:04:04;4.85;;;3.15;;
68987;SDS011;56038;46.080;11.116;2022-11-21T13:09:13;6.10;;;3.00;;
68987;SDS011;56038;46.080;11.116;2022-11-21T13:14:20;5.05;;;3.95;;
68987;SDS011;56038;46.080;11.116;2022-11-21T13:19:30;5.90;;;3.55;;
68987;SDS011;56038;46.080;11.116;2022-11-21T13:24:55;3.60;;;3.22;;
68987;SDS011;56038;46.080;11.116;2022-11-21T13:41:01;8.18;;;4.38;;
68987;SDS011;56038;46.080;11.116;2022-11-21T13:52:09;4.90;;;3.42;;
68987;SDS011;56038;46.080;11.116;2022-11-21T13:57:38;5.35;;;3.90;;
68987;SDS011;56038;46.080;11.116;2022-11-21T14:03:05;7.00;;;3.72;;
68987;SDS011;56038;46.080;11.116;2022-11-21T14:08:17;6.53;;;4.10;;
68987;SDS011;56038;46.080;11.116;2022-11-21T14:13:25;10.82;;;4.47;;
68987;SDS011;56038;46.080;11.116;2022-11-21T14:18:28;8.80;;;4.45;;
68987;SDS011;56038;46.080;11.116;2022-11-21T14:23:32;8.00;;;4.18;;
68987;SDS011;56038;46.080;11.116;2022-11-21T14:28:37;5.30;;;4.32;;
68987;SDS011;56038;46.080;11.116;2022-11-21T14:33:40;5.75;;;4.25;;
68987;SDS011;56038;46.080;11.116;2022-11-21T14:38:42;6.80;;;4.65;;
68987;SDS011;56038;46.080;11.116;2022-11-21T14:43:47;10.25;;;4.47;;
68987;SDS011;56038;46.080;11.116;2022-11-21T14:48:49;5.45;;;4.43;;
68987;SDS011;56038;46.080;11.116;2022-11-21T14:53:51;7.13;;;5.00;;
68987;SDS011;56038;46.080;11.116;2022-11-21T14:58:55;6.47;;;4.40;;
68987;SDS011;56038;46.080;11.116;2022-11-21T15:03:59;9.95;;;5.00;;
68987;SDS011;56038;46.080;11.116;2022-11-21T15:09:01;7.28;;;4.47;;
68987;SDS011;56038;46.080;11.116;2022-11-21T15:14:05;7.75;;;4.65;;
68987;SDS011;56038;46.080;11.116;2022-11-21T15:19:20;9.40;;;5.40;;
68987;SDS011;56038;46.080;11.116;2022-11-21T15:24:31;24.48;;;12.00;;
68987;SDS011;56038;46.080;11.116;2022-11-21T15:29:40;8.02;;;5.38;;
68987;SDS011;56038;46.080;11.116;2022-11-21T15:34:42;9.23;;;5.07;;
68987;SDS011;56038;46.080;11.116;2022-11-21T15:39:44;6.85;;;4.70;;
68987;SDS011;56038;46.080;11.116;2022-11-21T15:44:57;7.85;;;5.40;;
68987;SDS011;56038;46.080;11.116;2022-11-21T15:50:00;8.02;;;4.85;;
68987;SDS011;56038;46.080;11.116;2022-11-21T15:55:01;7.28;;;5.00;;
68987;SDS011;56038;46.080;11.116;2022-11-21T16:00:05;7.38;;;5.20;;
68987;SDS011;56038;46.080;11.116;2022-11-21T16:05:10;9.00;;;5.53;;
68987;SDS011;56038;46.080;11.116;2022-11-21T16:10:13;8.35;;;5.13;;
68987;SDS011;56038;46.080;11.116;2022-11-21T16:15:16;10.13;;;5.47;;
68987;SDS011;56038;46.080;11.116;2022-11-21T16:20:18;8.15;;;6.13;;
68987;SDS011;56038;46.080;11.116;2022-11-21T16:25:19;6.97;;;5.35;;
68987;SDS011;56038;46.080;11.116;2022-11-21T16:30:22;7.00;;;5.38;;
68987;SDS011;56038;46.080;11.116;2022-11-21T16:35:24;9.32;;;5.93;;
68987;SDS011;56038;46.080;11.116;2022-11-21T16:40:26;8.68;;;7.25;;
68987;SDS011;56038;46.080;11.116;2022-11-21T16:45:29;10.65;;;5.78;;
68987;SDS011;56038;46.080;11.116;2022-11-21T16:50:32;12.45;;;7.07;;
68987;SDS011;56038;46.080;11.116;2022-11-21T16:55:34;14.85;;;7.53;;
68987;SDS011;56038;46.080;11.116;2022-11-21T17:00:37;11.48;;;7.50;;
68987;SDS011;56038;46.080;11.116;2022-11-21T17:05:39;16.08;;;8.93;;
68987;SDS011;56038;46.080;11.116;2022-11-21T17:10:41;12.27;;;7.15;;
68987;SDS011;56038;46.080;11.116;2022-11-21T17:15:44;8.85;;;6.25;;
68987;SDS011;56038;46.080;11.116;2022-11-21T17:20:46;10.55;;;6.00;;
68987;SDS011;56038;46.080;11.116;2022-11-21T17:25:47;8.77;;;6.90;;
68987;SDS011;56038;46.080;11.116;2022-11-21T17:30:51;13.50;;;7.82;;
68987;SDS011;56038;46.080;11.116;2022-11-21T17:35:53;15.75;;;8.93;;
68987;SDS011;56038;46.080;11.116;2022-11-21T17:40:58;13.35;;;7.88;;
68987;SDS011;56038;46.080;11.116;2022-11-21T17:51:05;13.68;;;8.18;;
68987;SDS011;56038;46.080;11.116;2022-11-21T17:56:09;12.32;;;7.80;;
68987;SDS011;56038;46.080;11.116;2022-11-21T18:01:14;13.25;;;8.85;;
68987;SDS011;56038;46.080;11.116;2022-11-21T18:06:18;15.00;;;8.30;;
68987;SDS011;56038;46.080;11.116;2022-11-21T18:11:20;13.18;;;8.60;;
68987;SDS011;56038;46.080;11.116;2022-11-21T18:16:25;12.95;;;9.57;;
68987;SDS011;56038;46.080;11.116;2022-11-21T18:21:28;15.52;;;8.45;;
68987;SDS011;56038;46.080;11.116;2022-11-21T18:26:31;12.48;;;8.05;;
68987;SDS011;56038;46.080;11.116;2022-11-21T18:31:36;13.07;;;7.78;;
68987;SDS011;56038;46.080;11.116;2022-11-21T18:36:38;13.75;;;10.23;;
68987;SDS011;56038;46.080;11.116;2022-11-21T18:41:40;18.00;;;11.95;;
68987;SDS011;56038;46.080;11.116;2022-11-21T18:46:44;14.02;;;10.38;;
68987;SDS011;56038;46.080;11.116;2022-11-21T18:51:45;15.63;;;10.40;;
68987;SDS011;56038;46.080;11.116;2022-11-21T18:56:47;18.90;;;10.93;;
68987;SDS011;56038;46.080;11.116;2022-11-21T19:01:50;16.52;;;10.68;;
68987;SDS011;56038;46.080;11.116;2022-11-21T19:06:52;17.85;;;12.57;;
68987;SDS011;56038;46.080;11.116;2022-11-21T19:11:54;22.15;;;12.35;;
68987;SDS011;56038;46.080;11.116;2022-11-21T19:16:57;19.33;;;13.30;;
68987;SDS011;56038;46.080;11.116;2022-11-21T19:21:59;21.38;;;12.85;;
68987;SDS011;56038;46.080;11.116;2022-11-21T19:27:03;18.60;;;12.57;;
68987;SDS011;56038;46.080;11.116;2022-11-21T19:32:06;18.73;;;12.73;;
68987;SDS011;56038;46.080;11.116;2022-11-21T19:37:08;18.08;;;13.32;;
68987;SDS011;56038;46.080;11.116;2022-11-21T19:42:10;20.67;;;13.05;;
68987;SDS011;56038;46.080;11.116;2022-11-21T19:47:13;27.58;;;17.95;;
68987;SDS011;56038;46.080;11.116;2022-11-21T19:52:15;25.35;;;15.55;;
68987;SDS011;56038;46.080;11.116;2022-11-21T19:57:17;28.17;;;16.10;;
68987;SDS011;56038;46.080;11.116;2022-11-21T20:02:20;29.15;;;15.48;;
68987;SDS011;56038;46.080;11.116;2022-11-21T20:07:22;21.45;;;12.60;;
68987;SDS011;56038;46.080;11.116;2022-11-21T20:12:23;19.05;;;13.07;;
68987;SDS011;56038;46.080;11.116;2022-11-21T20:17:26;21.63;;;13.00;;
68987;SDS011;56038;46.080;11.116;2022-11-21T20:22:28;17.50;;;12.43;;
68987;SDS011;56038;46.080;11.116;2022-11-21T20:27:30;20.90;;;12.55;;
68987;SDS011;56038;46.080;11.116;2022-11-21T20:32:33;20.73;;;12.25;;
68987;SDS011;56038;46.080;11.116;2022-11-21T20:37:35;25.98;;;13.40;;
68987;SDS011;56038;46.080;11.116;2022-11-21T20:42:37;18.98;;;13.25;;
68987;SDS011;56038;46.080;11.116;2022-11-21T20:47:40;19.85;;;13.00;;
68987;SDS011;56038;46.080;11.116;2022-11-21T20:52:42;21.85;;;13.38;;
68987;SDS011;56038;46.080;11.116;2022-11-21T20:57:44;20.73;;;12.68;;
68987;SDS011;56038;46.080;11.116;2022-11-21T21:02:47;21.55;;;14.43;;
68987;SDS011;56038;46.080;11.116;2022-11-21T21:07:49;20.13;;;14.40;;
68987;SDS011;56038;46.080;11.116;2022-11-21T21:12:51;23.00;;;14.45;;
68987;SDS011;56038;46.080;11.116;2022-11-21T21:17:54;22.42;;;13.55;;
68987;SDS011;56038;46.080;11.116;2022-11-21T21:22:56;21.15;;;13.73;;
68987;SDS011;56038;46.080;11.116;2022-11-21T21:27:58;18.33;;;13.15;;
68987;SDS011;56038;46.080;11.116;2022-11-21T21:33:01;17.05;;;12.95;;
68987;SDS011;56038;46.080;11.116;2022-11-21T21:38:02;18.58;;;12.85;;
68987;SDS011;56038;46.080;11.116;2022-11-21T21:43:04;23.95;;;13.18;;
68987;SDS011;56038;46.080;11.116;2022-11-21T21:48:07;16.15;;;12.23;;
68987;SDS011;56038;46.080;11.116;2022-11-21T21:53:09;19.92;;;13.88;;
68987;SDS011;56038;46.080;11.116;2022-11-21T21:58:11;18.02;;;12.95;;
68987;SDS011;56038;46.080;11.116;2022-11-21T22:03:14;16.83;;;13.25;;
68987;SDS011;56038;46.080;11.116;2022-11-21T22:08:16;20.95;;;12.82;;
68987;SDS011;56038;46.080;11.116;2022-11-21T22:13:18;18.70;;;13.45;;
68987;SDS011;56038;46.080;11.116;2022-11-21T22:18:21;22.33;;;15.07;;
68987;SDS011;56038;46.080;11.116;2022-11-21T22:23:23;21.80;;;13.50;;
68987;SDS011;56038;46.080;11.116;2022-11-21T22:28:26;21.55;;;14.07;;
68987;SDS011;56038;46.080;11.116;2022-11-21T22:33:30;18.38;;;13.65;;
68987;SDS011;56038;46.080;11.116;2022-11-21T22:38:32;20.40;;;13.20;;
68987;SDS011;56038;46.080;11.116;2022-11-21T22:43:35;19.60;;;13.77;;
68987;SDS011;56038;46.080;11.116;2022-11-21T22:48:38;16.45;;;12.60;;
68987;SDS011;56038;46.080;11.116;2022-11-21T22:53:40;22.05;;;12.43;;
68987;SDS011;56038;46.080;11.116;2022-11-21T22:58:42;21.88;;;12.60;;
68987;SDS011;56038;46.080;11.116;2022-11-21T23:03:46;17.77;;;12.60;;
68987;SDS011;56038;46.080;11.116;2022-11-21T23:08:48;17.42;;;11.63;;
68987;SDS011;56038;46.080;11.116;2022-11-21T23:13:50;20.10;;;12.10;;
68987;SDS011;56038;46.080;11.116;2022-11-21T23:18:54;19.80;;;12.07;;
68987;SDS011;56038;46.080;11.116;2022-11-21T23:23:56;24.40;;;13.00;;
68987;SDS011;56038;46.080;11.116;2022-11-21T23:28:58;17.42;;;12.10;;
68987;SDS011;56038;46.080;11.116;2022-11-21T23:34:02;16.70;;;11.65;;
68987;SDS011;56038;46.080;11.116;2022-11-21T23:39:04;14.70;;;11.40;;
68987;SDS011;56038;46.080;11.116;2022-11-21T23:44:05;17.70;;;11.15;;
68987;SDS011;56038;46.080;11.116;2022-11-21T23:49:09;15.02;;;11.65;;
68987;SDS011;56038;46.080;11.116;2022-11-21T23:54:11;13.45;;;9.88;;
68987;SDS011;56038;46.080;11.116;2022-11-21T23:59:12;14.15;;;10.52;;
